首页
METAR-TAF:

METAR-TAF

机场 :

臺灣桃園國際機場

臺北, 台湾

纬度: 25-05N, 经度: 121-13E, 海拔: 33米

当前天气观测

该预报发布于26分钟前的01:30 UTC
风速14节,风向西转西南,在南转西南西之间变化
温度 31°C
湿度 75%
气压 1008 hPa
能见度10公里或以上
少量云层高于2000英尺
多云层高于8000英尺
多云层高于20000英尺

METAR: RCTP 260130Z 24014KT 210V270 9999 FEW020 BKN080 BKN200 31/26 Q1008 NOSIG RMK A2977

时间: 09:56 (01:56 UTC)

预报

该预报发布于1小时和36分钟前的00:20 UTC
预报有效从26日的 00点(UTC)到 27日的 06点(UTC)
风速18节,风向西南
能见度10公里或以上
少量云层高于2000英尺
短暂存在
从 26日的 01点(UTC)到 26日的 07点(UTC)
风速24节,风向西转西南
成为
从 26日的 09点(UTC)到 26日的 11点(UTC)
风速12节,风向西转西南
成为
从 26日的 13点(UTC)到 26日的 15点(UTC)
风速6节,风向西南
短暂存在
从 26日的 15点(UTC)到 26日的 20点(UTC)
风速5节,风向
少量云层高于1200英尺
多云层高于2200英尺

TAF: RCTP 260020Z 2600/2706 22018KT 9999 FEW020 TEMPO 2601/2607 25024KT BECMG 2609/2611 24012KT BECMG 2613/2615 22006KT TEMPO 2615/2620 19005KT FEW012 BKN022

超过4000个机场的气象观测和天气预报(METAR&TAF报告)。

可查询的气象台以黄色和红色小点在地图上表示。

将鼠标移到小点上方,可查看气象台名称。

然后点击查看天气观测和预报。

如需切换地图:点击带黑十字的绿色按钮放大地图;点击带横线的绿色按钮缩小地图;或者点击绿色箭头查看邻近地区的地图。


METAR-TAF: